x

Buoy I01 - Eastern Maine Shelf (44034) Wave Buoy

11:04 - Wed 23rd Aug 2017 All times are EDT. -4 hours from GMT.

  • Sig Wave height 3.0ft
  • Peak Period 6s
  • Wind
    4mph, 7mph gusts
  • Sea Temp 55°f
  • Air Temp 59°f
  • Sea Pressure 1008.3mb
  • Buoy I01 - Eastern Maine Shelf
  • Buoy I01 - Eastern Maine Shelf

More Historic Weather Station data

Upgrade to MSW Pro to gain access to the past 30 days of data for over 8000 Wavebouys and Weather Stations around the globe.

Join

Comparision Forecast

View Surf forecast
   
mer. 08/23 11:04 3ft 6s 4 7 mph 1008.3mb 55f 59f
10:04 3.5ft 6s 7 7 mph 1007.8mb 56f 58f
9:04 3.5ft 8s 7 9 mph 1007.6mb 56f 58f
8:04 4ft 8s 11 13 mph 1006.8mb 55f 59f
7:04 4.5ft 8s 11 13 mph 1005.9mb 56f 60f
6:04 5ft 6s 11 13 mph 1005.4mb 56f 60f
5:04 4.5ft 8s 11 11 mph 1005.2mb 55f 60f
4:04 5ft 8s 13 13 mph 1004.7mb 55f 60f
3:04 5ft 6s 7 11 mph 1004.8mb 55f 60f
2:04 6ft 8s 4 7 mph 1004.8mb 55f 58f
1:04 6ft 8s 11 13 mph 1004.5mb 55f 58f
12:04 5.5ft 8s 9 11 mph 1004.5mb 55f 59f
11:04 6ft 8s 7 9 mph 1004.9mb 55f 58f
10:04 6.5ft 8s 7 9 mph 1004.9mb 55f 57f
9:04 6.5ft 8s 13 16 mph 1004.4mb 55f 59f
8:04 6ft 8s 13 16 mph 1003.9mb 55f 59f
7:04 6ft 6s 16 18 mph 1003.7mb 55f 59f
6:04 6.5ft 8s 16 18 mph 1003.3mb 54f 59f
5:04 7.5ft 8s 16 18 mph 1003.3mb 54f 59f
4:04 8.5ft 8s 18 20 mph 1003.5mb 53f 59f
3:04 7.5ft 6s 18 22 mph 1004.2mb 53f 59f
2:04 7ft 6s 25 29 mph 1003.9mb 54f 61f
1:04 7ft 6s 27 31 mph 1004mb 55f 61f
12:04 5.5ft 5s 22 27 mph 1004.1mb 55f 60f
mar. 08/22 11:04 5ft 5s 22 25 mph 1004.8mb 55f 61f
10:04 4ft 5s 20 25 mph 1005.9mb 56f 61f
9:04 3.5ft 5s 20 22 mph 1006.8mb 56f 61f
8:04 3ft 4s 18 20 mph 1007.3mb 56f 60f
7:04 2.5ft 5s 18 20 mph 1008.1mb 56f 61f
6:04 2ft 4s 11 13 mph 1008.8mb 56f 60f
5:04 1.6ft 4s 11 13 mph 1009.4mb 56f 60f
4:04 1.6ft 4s 9 9 mph 1010.3mb 56f 60f
3:04 1.3ft 4s 9 11 mph 1011.3mb 55f 60f
2:04 1.3ft 6s 11 13 mph 1012.1mb 55f 60f
1:04  -   -  7 9 mph 1012.7mb 56f 60f
lun. 08/21 1:04 2.5ft 6s 7 9 mph 1016.5mb 54f 58f
12:04 2.5ft 6s 4 9 mph 1015.9mb 54f 59f
dim. 08/20 11:04 2ft 6s 7 9 mph 1015.3mb 54f 58f
10:04 2ft 6s 4 7 mph 1015.1mb 54f 62f
9:04 2ft 6s 7 9 mph 1014.3mb 54f 59f
8:04 2.5ft 6s 4 7 mph 1013.4mb 54f 61f
7:04 2.5ft 8s 9 9 mph 1012.9mb 54f 60f
6:04 2.5ft 8s 11 11 mph 1012.5mb 54f 60f
5:04 3ft 8s 11 11 mph 1012.1mb 54f 60f
4:04 2.5ft 8s 11 11 mph 1012mb 54f 59f
3:04 3ft 6s 9 9 mph 1011.8mb 54f 58f
2:04 3ft 6s 9 9 mph 1011.8mb 54f 58f
1:04 3.5ft 6s 7 7 mph 1011.6mb 54f 57f
12:04 3.5ft 8s 9 9 mph 1011.3mb 54f 57f
11:04 3.5ft 6s 9 11 mph 1011.2mb 54f 56f
10:04 3.5ft 6s 7 7 mph 1010.7mb 54f 56f
9:04 3.5ft 6s 4 4 mph 1010.5mb 54f 56f
8:04 3.5ft 6s 7 7 mph 1010.5mb 54f 56f
7:04 3.5ft 6s 7 7 mph 1010.3mb 53f 56f
6:04 3.5ft 8s 7 7 mph 1009.5mb 54f 56f